sensor_id;sensor_type;location;lat;lon;timestamp;temperature;humidity
14079;DHT22;7115;50.150;8.568;2023-05-13T00:00:32;14.10;99.90
14079;DHT22;7115;50.150;8.568;2023-05-13T00:02:59;14.00;99.90
14079;DHT22;7115;50.150;8.568;2023-05-13T00:05:26;14.00;99.90
14079;DHT22;7115;50.150;8.568;2023-05-13T00:07:55;14.00;99.90
14079;DHT22;7115;50.150;8.568;2023-05-13T00:10:23;14.10;99.90
14079;DHT22;7115;50.150;8.568;2023-05-13T00:12:50;14.10;99.90
14079;DHT22;7115;50.150;8.568;2023-05-13T00:15:17;14.20;99.90
14079;DHT22;7115;50.150;8.568;2023-05-13T00:17:44;14.30;99.90
14079;DHT22;7115;50.150;8.568;2023-05-13T00:20:11;14.30;99.90
14079;DHT22;7115;50.150;8.568;2023-05-13T00:22:38;14.40;99.90
14079;DHT22;7115;50.150;8.568;2023-05-13T00:25:06;14.40;99.90
14079;DHT22;7115;50.150;8.568;2023-05-13T00:27:34;14.50;99.90
14079;DHT22;7115;50.150;8.568;2023-05-13T00:30:01;14.60;99.90
14079;DHT22;7115;50.150;8.568;2023-05-13T00:32:27;14.60;99.90
14079;DHT22;7115;50.150;8.568;2023-05-13T00:34:54;14.60;99.90
14079;DHT22;7115;50.150;8.568;2023-05-13T00:37:22;14.70;99.90
14079;DHT22;7115;50.150;8.568;2023-05-13T00:39:49;14.70;99.90
14079;DHT22;7115;50.150;8.568;2023-05-13T00:42:17;14.70;99.90
14079;DHT22;7115;50.150;8.568;2023-05-13T00:44:44;14.80;99.90
14079;DHT22;7115;50.150;8.568;2023-05-13T00:47:11;14.80;99.90
14079;DHT22;7115;50.150;8.568;2023-05-13T00:49:38;14.80;99.90
14079;DHT22;7115;50.150;8.568;2023-05-13T00:52:05;14.80;99.90
14079;DHT22;7115;50.150;8.568;2023-05-13T00:54:32;14.80;99.90
14079;DHT22;7115;50.150;8.568;2023-05-13T00:56:59;14.80;99.90
14079;DHT22;7115;50.150;8.568;2023-05-13T00:59:28;14.80;99.90
14079;DHT22;7115;50.150;8.568;2023-05-13T01:02:02;14.80;99.90
14079;DHT22;7115;50.150;8.568;2023-05-13T01:04:53;14.80;99.90
14079;DHT22;7115;50.150;8.568;2023-05-13T01:07:26;14.90;99.90
14079;DHT22;7115;50.150;8.568;2023-05-13T01:10:04;14.90;99.90
14079;DHT22;7115;50.150;8.568;2023-05-13T01:12:33;14.90;99.90
14079;DHT22;7115;50.150;8.568;2023-05-13T01:15:06;14.90;99.90
14079;DHT22;7115;50.150;8.568;2023-05-13T01:17:39;14.90;99.90
14079;DHT22;7115;50.150;8.568;2023-05-13T01:20:07;15.00;99.90
14079;DHT22;7115;50.150;8.568;2023-05-13T01:22:35;15.00;99.90
14079;DHT22;7115;50.150;8.568;2023-05-13T01:25:02;15.00;99.90
14079;DHT22;7115;50.150;8.568;2023-05-13T01:27:29;15.00;99.90
14079;DHT22;7115;50.150;8.568;2023-05-13T01:29:56;15.00;99.90
14079;DHT22;7115;50.150;8.568;2023-05-13T01:32:23;15.10;99.90
14079;DHT22;7115;50.150;8.568;2023-05-13T01:34:51;15.10;99.90
14079;DHT22;7115;50.150;8.568;2023-05-13T01:37:18;15.10;99.90
14079;DHT22;7115;50.150;8.568;2023-05-13T01:39:47;15.10;99.90
14079;DHT22;7115;50.150;8.568;2023-05-13T01:42:15;15.10;99.90
14079;DHT22;7115;50.150;8.568;2023-05-13T01:44:42;15.10;99.90
14079;DHT22;7115;50.150;8.568;2023-05-13T01:47:08;15.10;99.90
14079;DHT22;7115;50.150;8.568;2023-05-13T01:49:35;15.20;99.90
14079;DHT22;7115;50.150;8.568;2023-05-13T01:52:02;15.20;99.90
14079;DHT22;7115;50.150;8.568;2023-05-13T01:54:29;15.10;99.90
14079;DHT22;7115;50.150;8.568;2023-05-13T01:56:58;15.20;99.90
14079;DHT22;7115;50.150;8.568;2023-05-13T01:59:25;15.20;99.90
14079;DHT22;7115;50.150;8.568;2023-05-13T02:01:51;15.20;99.90
14079;DHT22;7115;50.150;8.568;2023-05-13T02:04:18;15.20;99.90
14079;DHT22;7115;50.150;8.568;2023-05-13T02:06:45;15.20;99.90
14079;DHT22;7115;50.150;8.568;2023-05-13T02:09:13;15.20;99.90
14079;DHT22;7115;50.150;8.568;2023-05-13T02:11:40;15.20;99.90
14079;DHT22;7115;50.150;8.568;2023-05-13T02:14:08;15.20;99.90
14079;DHT22;7115;50.150;8.568;2023-05-13T02:16:35;15.20;99.90
14079;DHT22;7115;50.150;8.568;2023-05-13T02:19:01;15.20;99.90
14079;DHT22;7115;50.150;8.568;2023-05-13T02:21:28;15.10;99.90
14079;DHT22;7115;50.150;8.568;2023-05-13T02:23:55;15.10;99.90
14079;DHT22;7115;50.150;8.568;2023-05-13T02:26:22;15.20;99.90
14079;DHT22;7115;50.150;8.568;2023-05-13T02:28:49;15.20;99.90
14079;DHT22;7115;50.150;8.568;2023-05-13T02:31:17;15.20;99.90
14079;DHT22;7115;50.150;8.568;2023-05-13T02:33:44;15.20;99.90
14079;DHT22;7115;50.150;8.568;2023-05-13T02:36:11;15.20;99.90
14079;DHT22;7115;50.150;8.568;2023-05-13T02:38:38;15.20;99.90
14079;DHT22;7115;50.150;8.568;2023-05-13T02:41:05;15.20;99.90
14079;DHT22;7115;50.150;8.568;2023-05-13T02:43:32;15.20;99.90
14079;DHT22;7115;50.150;8.568;2023-05-13T02:45:59;15.20;99.90
14079;DHT22;7115;50.150;8.568;2023-05-13T02:48:27;15.20;99.90
14079;DHT22;7115;50.150;8.568;2023-05-13T02:50:54;15.10;99.90
14079;DHT22;7115;50.150;8.568;2023-05-13T02:53:21;15.10;99.90
14079;DHT22;7115;50.150;8.568;2023-05-13T02:55:48;15.10;99.90
14079;DHT22;7115;50.150;8.568;2023-05-13T02:58:16;15.10;99.90
14079;DHT22;7115;50.150;8.568;2023-05-13T03:00:43;15.10;99.90
14079;DHT22;7115;50.150;8.568;2023-05-13T03:03:09;15.10;99.90
14079;DHT22;7115;50.150;8.568;2023-05-13T03:05:38;15.00;99.90
14079;DHT22;7115;50.150;8.568;2023-05-13T03:08:05;15.00;99.90
14079;DHT22;7115;50.150;8.568;2023-05-13T03:10:31;15.00;99.90
14079;DHT22;7115;50.150;8.568;2023-05-13T03:12:58;15.00;99.90
14079;DHT22;7115;50.150;8.568;2023-05-13T03:15:25;14.90;99.90
14079;DHT22;7115;50.150;8.568;2023-05-13T03:17:52;14.90;99.90
14079;DHT22;7115;50.150;8.568;2023-05-13T03:20:19;14.90;99.90
14079;DHT22;7115;50.150;8.568;2023-05-13T03:22:47;14.80;99.90
14079;DHT22;7115;50.150;8.568;2023-05-13T03:25:14;14.80;99.90
14079;DHT22;7115;50.150;8.568;2023-05-13T03:27:41;14.80;99.90
14079;DHT22;7115;50.150;8.568;2023-05-13T03:30:09;14.80;99.90
14079;DHT22;7115;50.150;8.568;2023-05-13T03:32:36;14.80;99.90
14079;DHT22;7115;50.150;8.568;2023-05-13T03:35:03;14.70;99.90
14079;DHT22;7115;50.150;8.568;2023-05-13T03:37:30;14.70;99.90
14079;DHT22;7115;50.150;8.568;2023-05-13T03:39:59;14.70;99.90
14079;DHT22;7115;50.150;8.568;2023-05-13T03:42:25;14.70;99.90
14079;DHT22;7115;50.150;8.568;2023-05-13T03:44:53;14.70;99.90
14079;DHT22;7115;50.150;8.568;2023-05-13T03:47:22;14.70;99.90
14079;DHT22;7115;50.150;8.568;2023-05-13T03:49:49;14.70;99.90
14079;DHT22;7115;50.150;8.568;2023-05-13T03:52:16;14.70;99.90
14079;DHT22;7115;50.150;8.568;2023-05-13T03:54:43;14.70;99.90
14079;DHT22;7115;50.150;8.568;2023-05-13T03:57:11;14.70;99.90
14079;DHT22;7115;50.150;8.568;2023-05-13T03:59:38;14.70;99.90
14079;DHT22;7115;50.150;8.568;2023-05-13T04:02:05;14.70;99.90
14079;DHT22;7115;50.150;8.568;2023-05-13T04:04:32;14.70;99.90
14079;DHT22;7115;50.150;8.568;2023-05-13T04:06:59;14.70;99.90
14079;DHT22;7115;50.150;8.568;2023-05-13T04:09:26;14.60;99.90
14079;DHT22;7115;50.150;8.568;2023-05-13T04:11:53;14.60;99.90
14079;DHT22;7115;50.150;8.568;2023-05-13T04:14:21;14.60;99.90
14079;DHT22;7115;50.150;8.568;2023-05-13T04:16:48;14.60;99.90
14079;DHT22;7115;50.150;8.568;2023-05-13T04:19:15;14.60;99.90
14079;DHT22;7115;50.150;8.568;2023-05-13T04:21:44;14.60;99.90
14079;DHT22;7115;50.150;8.568;2023-05-13T04:24:11;14.60;99.90
14079;DHT22;7115;50.150;8.568;2023-05-13T04:26:38;14.60;99.90
14079;DHT22;7115;50.150;8.568;2023-05-13T04:29:05;14.60;99.90
14079;DHT22;7115;50.150;8.568;2023-05-13T04:31:33;14.60;99.90
14079;DHT22;7115;50.150;8.568;2023-05-13T04:34:00;14.60;99.90
14079;DHT22;7115;50.150;8.568;2023-05-13T04:36:27;14.60;99.90
14079;DHT22;7115;50.150;8.568;2023-05-13T04:38:54;14.60;99.90
14079;DHT22;7115;50.150;8.568;2023-05-13T04:41:21;14.70;99.90
14079;DHT22;7115;50.150;8.568;2023-05-13T04:43:48;14.70;99.90
14079;DHT22;7115;50.150;8.568;2023-05-13T04:46:14;14.70;99.90
14079;DHT22;7115;50.150;8.568;2023-05-13T04:48:43;14.80;99.90
14079;DHT22;7115;50.150;8.568;2023-05-13T04:51:14;14.80;99.90
14079;DHT22;7115;50.150;8.568;2023-05-13T04:53:42;14.80;99.90
14079;DHT22;7115;50.150;8.568;2023-05-13T04:56:09;14.80;99.90
14079;DHT22;7115;50.150;8.568;2023-05-13T04:58:36;14.90;99.90
14079;DHT22;7115;50.150;8.568;2023-05-13T05:01:03;14.90;99.90
14079;DHT22;7115;50.150;8.568;2023-05-13T05:03:30;14.90;99.90
14079;DHT22;7115;50.150;8.568;2023-05-13T05:05:58;14.90;99.90
14079;DHT22;7115;50.150;8.568;2023-05-13T05:08:25;14.80;99.90
14079;DHT22;7115;50.150;8.568;2023-05-13T05:10:54;14.80;99.90
14079;DHT22;7115;50.150;8.568;2023-05-13T05:13:21;14.80;99.90
14079;DHT22;7115;50.150;8.568;2023-05-13T05:15:47;14.70;99.90
14079;DHT22;7115;50.150;8.568;2023-05-13T05:18:14;14.60;99.90
14079;DHT22;7115;50.150;8.568;2023-05-13T05:20:41;14.60;99.90
14079;DHT22;7115;50.150;8.568;2023-05-13T05:23:10;14.60;99.90
14079;DHT22;7115;50.150;8.568;2023-05-13T05:25:36;14.50;99.90
14079;DHT22;7115;50.150;8.568;2023-05-13T05:28:04;14.50;99.90
14079;DHT22;7115;50.150;8.568;2023-05-13T05:30:31;14.40;99.90
14079;DHT22;7115;50.150;8.568;2023-05-13T05:33:05;14.40;99.90
14079;DHT22;7115;50.150;8.568;2023-05-13T05:35:32;14.40;99.90
14079;DHT22;7115;50.150;8.568;2023-05-13T05:38:02;14.40;99.90
14079;DHT22;7115;50.150;8.568;2023-05-13T05:40:31;14.40;99.90
14079;DHT22;7115;50.150;8.568;2023-05-13T05:42:58;14.40;99.90
14079;DHT22;7115;50.150;8.568;2023-05-13T05:45:25;14.40;99.90
14079;DHT22;7115;50.150;8.568;2023-05-13T05:47:52;14.40;99.90
14079;DHT22;7115;50.150;8.568;2023-05-13T05:50:20;14.40;99.90
14079;DHT22;7115;50.150;8.568;2023-05-13T05:52:48;14.40;99.90
14079;DHT22;7115;50.150;8.568;2023-05-13T05:55:14;14.50;99.90
14079;DHT22;7115;50.150;8.568;2023-05-13T05:57:43;14.60;99.90
14079;DHT22;7115;50.150;8.568;2023-05-13T06:00:10;14.60;99.90
14079;DHT22;7115;50.150;8.568;2023-05-13T06:02:38;14.60;99.90
14079;DHT22;7115;50.150;8.568;2023-05-13T06:05:06;14.70;99.90
14079;DHT22;7115;50.150;8.568;2023-05-13T06:07:33;14.80;99.90
14079;DHT22;7115;50.150;8.568;2023-05-13T06:10:00;14.80;99.90
14079;DHT22;7115;50.150;8.568;2023-05-13T06:12:27;14.90;99.90
14079;DHT22;7115;50.150;8.568;2023-05-13T06:14:55;15.00;99.90
14079;DHT22;7115;50.150;8.568;2023-05-13T06:17:22;15.10;99.90
14079;DHT22;7115;50.150;8.568;2023-05-13T06:19:49;15.20;99.90
14079;DHT22;7115;50.150;8.568;2023-05-13T06:22:16;15.30;99.90
14079;DHT22;7115;50.150;8.568;2023-05-13T06:24:43;15.40;99.90
14079;DHT22;7115;50.150;8.568;2023-05-13T06:27:10;15.60;99.90
14079;DHT22;7115;50.150;8.568;2023-05-13T06:29:40;15.60;99.90
14079;DHT22;7115;50.150;8.568;2023-05-13T06:32:08;15.80;99.90
14079;DHT22;7115;50.150;8.568;2023-05-13T06:34:35;15.90;99.90
14079;DHT22;7115;50.150;8.568;2023-05-13T06:37:01;16.00;99.90
14079;DHT22;7115;50.150;8.568;2023-05-13T06:39:28;16.20;99.90
14079;DHT22;7115;50.150;8.568;2023-05-13T06:41:55;16.30;99.90
14079;DHT22;7115;50.150;8.568;2023-05-13T06:44:22;16.50;99.90
14079;DHT22;7115;50.150;8.568;2023-05-13T06:46:49;16.60;99.90
14079;DHT22;7115;50.150;8.568;2023-05-13T06:49:17;16.70;99.90
14079;DHT22;7115;50.150;8.568;2023-05-13T06:51:44;16.80;99.90
14079;DHT22;7115;50.150;8.568;2023-05-13T06:54:11;16.90;99.90
14079;DHT22;7115;50.150;8.568;2023-05-13T06:56:38;17.00;99.90
14079;DHT22;7115;50.150;8.568;2023-05-13T06:59:05;17.20;99.90
14079;DHT22;7115;50.150;8.568;2023-05-13T07:01:31;17.20;99.90
14079;DHT22;7115;50.150;8.568;2023-05-13T07:03:58;17.30;99.90
14079;DHT22;7115;50.150;8.568;2023-05-13T07:06:27;17.40;99.90
14079;DHT22;7115;50.150;8.568;2023-05-13T07:08:56;17.50;99.90
14079;DHT22;7115;50.150;8.568;2023-05-13T07:11:23;17.60;99.90
14079;DHT22;7115;50.150;8.568;2023-05-13T07:13:50;17.70;99.90
14079;DHT22;7115;50.150;8.568;2023-05-13T07:16:16;17.80;99.90
14079;DHT22;7115;50.150;8.568;2023-05-13T07:18:43;17.90;99.90
14079;DHT22;7115;50.150;8.568;2023-05-13T07:21:10;18.00;99.90
14079;DHT22;7115;50.150;8.568;2023-05-13T07:23:38;18.10;99.90
14079;DHT22;7115;50.150;8.568;2023-05-13T07:26:06;18.30;99.90
14079;DHT22;7115;50.150;8.568;2023-05-13T07:28:33;18.40;99.90
14079;DHT22;7115;50.150;8.568;2023-05-13T07:31:00;18.50;99.90
14079;DHT22;7115;50.150;8.568;2023-05-13T07:33:27;18.70;99.90
14079;DHT22;7115;50.150;8.568;2023-05-13T07:35:54;18.80;99.90
14079;DHT22;7115;50.150;8.568;2023-05-13T07:38:21;18.90;99.90
14079;DHT22;7115;50.150;8.568;2023-05-13T07:40:49;19.10;99.90
14079;DHT22;7115;50.150;8.568;2023-05-13T07:43:16;19.10;99.90
14079;DHT22;7115;50.150;8.568;2023-05-13T07:45:49;19.20;99.90
14079;DHT22;7115;50.150;8.568;2023-05-13T07:48:16;19.40;99.90
14079;DHT22;7115;50.150;8.568;2023-05-13T07:50:43;19.50;99.90
14079;DHT22;7115;50.150;8.568;2023-05-13T07:53:10;19.70;99.90
14079;DHT22;7115;50.150;8.568;2023-05-13T07:55:37;19.80;99.90
14079;DHT22;7115;50.150;8.568;2023-05-13T07:58:06;19.80;99.90
14079;DHT22;7115;50.150;8.568;2023-05-13T08:00:32;19.90;99.90
14079;DHT22;7115;50.150;8.568;2023-05-13T08:02:59;19.90;99.90
14079;DHT22;7115;50.150;8.568;2023-05-13T08:05:26;19.90;99.90
14079;DHT22;7115;50.150;8.568;2023-05-13T08:07:53;19.80;99.90
14079;DHT22;7115;50.150;8.568;2023-05-13T08:10:20;19.70;99.90
14079;DHT22;7115;50.150;8.568;2023-05-13T08:12:47;19.60;99.90
14079;DHT22;7115;50.150;8.568;2023-05-13T08:15:20;19.40;99.90
14079;DHT22;7115;50.150;8.568;2023-05-13T08:17:47;19.40;99.90
14079;DHT22;7115;50.150;8.568;2023-05-13T08:20:14;19.30;99.90
14079;DHT22;7115;50.150;8.568;2023-05-13T08:22:41;19.20;99.90
14079;DHT22;7115;50.150;8.568;2023-05-13T08:25:09;19.10;99.90
14079;DHT22;7115;50.150;8.568;2023-05-13T08:27:38;19.10;99.90
14079;DHT22;7115;50.150;8.568;2023-05-13T08:30:06;19.00;99.90
14079;DHT22;7115;50.150;8.568;2023-05-13T08:32:35;19.10;99.90
14079;DHT22;7115;50.150;8.568;2023-05-13T08:35:02;19.10;99.90
14079;DHT22;7115;50.150;8.568;2023-05-13T08:37:28;19.10;99.90
14079;DHT22;7115;50.150;8.568;2023-05-13T08:39:55;19.20;99.90
14079;DHT22;7115;50.150;8.568;2023-05-13T08:42:27;19.40;99.90
14079;DHT22;7115;50.150;8.568;2023-05-13T08:44:57;19.50;99.90
14079;DHT22;7115;50.150;8.568;2023-05-13T08:47:30;19.60;99.90
14079;DHT22;7115;50.150;8.568;2023-05-13T08:50:02;19.80;99.90
14079;DHT22;7115;50.150;8.568;2023-05-13T08:52:30;19.90;99.90
14079;DHT22;7115;50.150;8.568;2023-05-13T08:54:58;20.10;99.90
14079;DHT22;7115;50.150;8.568;2023-05-13T08:57:26;20.30;99.90
14079;DHT22;7115;50.150;8.568;2023-05-13T08:59:53;20.50;99.90
14079;DHT22;7115;50.150;8.568;2023-05-13T09:02:19;20.70;99.80
14079;DHT22;7115;50.150;8.568;2023-05-13T09:04:47;20.80;99.50
14079;DHT22;7115;50.150;8.568;2023-05-13T09:07:19;21.00;99.70
14079;DHT22;7115;50.150;8.568;2023-05-13T09:09:46;21.10;99.10
14079;DHT22;7115;50.150;8.568;2023-05-13T09:12:43;21.10;98.60
14079;DHT22;7115;50.150;8.568;2023-05-13T09:15:12;21.20;98.20
14079;DHT22;7115;50.150;8.568;2023-05-13T09:17:39;21.30;98.20
14079;DHT22;7115;50.150;8.568;2023-05-13T09:20:09;21.30;98.00
14079;DHT22;7115;50.150;8.568;2023-05-13T09:22:42;21.30;97.90
14079;DHT22;7115;50.150;8.568;2023-05-13T09:25:11;21.40;97.80
14079;DHT22;7115;50.150;8.568;2023-05-13T09:27:41;21.50;97.70
14079;DHT22;7115;50.150;8.568;2023-05-13T09:30:09;21.60;97.60
14079;DHT22;7115;50.150;8.568;2023-05-13T09:32:36;21.70;97.50
14079;DHT22;7115;50.150;8.568;2023-05-13T09:35:11;21.80;97.30
14079;DHT22;7115;50.150;8.568;2023-05-13T09:37:47;21.90;97.00
14079;DHT22;7115;50.150;8.568;2023-05-13T09:40:16;21.90;96.80
14079;DHT22;7115;50.150;8.568;2023-05-13T09:42:44;21.90;96.60
14079;DHT22;7115;50.150;8.568;2023-05-13T09:45:12;21.90;96.60
14079;DHT22;7115;50.150;8.568;2023-05-13T09:47:39;22.10;96.50
14079;DHT22;7115;50.150;8.568;2023-05-13T09:50:08;22.20;96.50
14079;DHT22;7115;50.150;8.568;2023-05-13T09:52:36;22.30;96.50
14079;DHT22;7115;50.150;8.568;2023-05-13T09:55:08;22.40;96.30
14079;DHT22;7115;50.150;8.568;2023-05-13T09:57:35;22.50;95.90
14079;DHT22;7115;50.150;8.568;2023-05-13T10:00:03;22.60;95.80
14079;DHT22;7115;50.150;8.568;2023-05-13T10:02:43;22.50;95.50
14079;DHT22;7115;50.150;8.568;2023-05-13T10:05:11;22.60;95.50
14079;DHT22;7115;50.150;8.568;2023-05-13T10:07:38;22.60;95.40
14079;DHT22;7115;50.150;8.568;2023-05-13T10:10:08;22.60;95.40
14079;DHT22;7115;50.150;8.568;2023-05-13T10:12:37;22.70;95.40
14079;DHT22;7115;50.150;8.568;2023-05-13T10:15:07;22.90;95.70
14079;DHT22;7115;50.150;8.568;2023-05-13T10:17:35;23.10;95.30
14079;DHT22;7115;50.150;8.568;2023-05-13T10:20:04;23.30;95.30
14079;DHT22;7115;50.150;8.568;2023-05-13T10:22:32;23.40;95.00
14079;DHT22;7115;50.150;8.568;2023-05-13T10:25:01;23.50;94.80
14079;DHT22;7115;50.150;8.568;2023-05-13T10:27:32;23.50;94.60
14079;DHT22;7115;50.150;8.568;2023-05-13T10:30:00;23.60;94.30
14079;DHT22;7115;50.150;8.568;2023-05-13T10:32:30;23.50;94.20
14079;DHT22;7115;50.150;8.568;2023-05-13T10:35:01;23.50;94.20
14079;DHT22;7115;50.150;8.568;2023-05-13T10:37:49;23.50;94.50
14079;DHT22;7115;50.150;8.568;2023-05-13T10:40:33;23.50;94.00
14079;DHT22;7115;50.150;8.568;2023-05-13T10:43:15;23.50;94.10
14079;DHT22;7115;50.150;8.568;2023-05-13T10:45:44;23.50;94.10
14079;DHT22;7115;50.150;8.568;2023-05-13T10:48:12;23.50;94.20
14079;DHT22;7115;50.150;8.568;2023-05-13T10:50:50;23.60;94.10
14079;DHT22;7115;50.150;8.568;2023-05-13T10:53:21;23.70;93.90
14079;DHT22;7115;50.150;8.568;2023-05-13T10:55:52;23.90;93.90
14079;DHT22;7115;50.150;8.568;2023-05-13T10:58:20;24.10;94.00
14079;DHT22;7115;50.150;8.568;2023-05-13T11:00:50;24.30;93.80
14079;DHT22;7115;50.150;8.568;2023-05-13T11:03:27;24.50;93.50
14079;DHT22;7115;50.150;8.568;2023-05-13T11:06:00;24.50;93.00
14079;DHT22;7115;50.150;8.568;2023-05-13T11:08:37;24.50;93.00
14079;DHT22;7115;50.150;8.568;2023-05-13T11:11:16;24.50;93.20
14079;DHT22;7115;50.150;8.568;2023-05-13T11:13:45;24.60;93.10
14079;DHT22;7115;50.150;8.568;2023-05-13T11:16:14;24.60;93.00
14079;DHT22;7115;50.150;8.568;2023-05-13T11:18:42;24.40;92.80
14079;DHT22;7115;50.150;8.568;2023-05-13T11:21:09;24.30;92.80
14079;DHT22;7115;50.150;8.568;2023-05-13T11:23:54;24.20;92.70
14079;DHT22;7115;50.150;8.568;2023-05-13T11:26:22;24.00;93.00
14079;DHT22;7115;50.150;8.568;2023-05-13T11:28:55;23.80;92.80
14079;DHT22;7115;50.150;8.568;2023-05-13T11:31:23;23.60;92.90
14079;DHT22;7115;50.150;8.568;2023-05-13T11:34:10;23.40;93.10
14079;DHT22;7115;50.150;8.568;2023-05-13T11:36:38;23.20;93.20
14079;DHT22;7115;50.150;8.568;2023-05-13T11:39:10;23.10;93.40
14079;DHT22;7115;50.150;8.568;2023-05-13T11:41:39;23.10;93.60
14079;DHT22;7115;50.150;8.568;2023-05-13T11:44:10;23.00;93.70
14079;DHT22;7115;50.150;8.568;2023-05-13T11:46:37;23.10;93.80
14079;DHT22;7115;50.150;8.568;2023-05-13T11:49:04;23.10;94.00
14079;DHT22;7115;50.150;8.568;2023-05-13T11:51:33;23.20;94.20
14079;DHT22;7115;50.150;8.568;2023-05-13T11:54:01;23.20;94.20
14079;DHT22;7115;50.150;8.568;2023-05-13T11:56:28;23.20;93.90
14079;DHT22;7115;50.150;8.568;2023-05-13T11:59:13;23.20;93.60
14079;DHT22;7115;50.150;8.568;2023-05-13T12:01:40;23.20;93.30
14079;DHT22;7115;50.150;8.568;2023-05-13T12:04:07;23.20;93.30
14079;DHT22;7115;50.150;8.568;2023-05-13T12:06:41;23.20;93.10
14079;DHT22;7115;50.150;8.568;2023-05-13T12:09:10;23.10;92.90
14079;DHT22;7115;50.150;8.568;2023-05-13T12:11:38;23.10;92.90
14079;DHT22;7115;50.150;8.568;2023-05-13T12:14:05;23.00;93.00
14079;DHT22;7115;50.150;8.568;2023-05-13T12:16:34;22.80;93.10
14079;DHT22;7115;50.150;8.568;2023-05-13T12:19:03;22.80;93.20
14079;DHT22;7115;50.150;8.568;2023-05-13T12:21:31;22.70;93.20
14079;DHT22;7115;50.150;8.568;2023-05-13T12:23:58;22.60;93.30
14079;DHT22;7115;50.150;8.568;2023-05-13T12:26:25;22.60;93.50
14079;DHT22;7115;50.150;8.568;2023-05-13T12:28:56;22.60;93.70
14079;DHT22;7115;50.150;8.568;2023-05-13T12:31:24;22.70;93.80
14079;DHT22;7115;50.150;8.568;2023-05-13T12:33:53;22.70;93.80
14079;DHT22;7115;50.150;8.568;2023-05-13T12:36:21;22.80;93.80
14079;DHT22;7115;50.150;8.568;2023-05-13T12:39:00;23.10;93.70
14079;DHT22;7115;50.150;8.568;2023-05-13T12:41:29;23.40;93.50
14079;DHT22;7115;50.150;8.568;2023-05-13T12:43:57;23.60;93.30
14079;DHT22;7115;50.150;8.568;2023-05-13T12:46:25;23.60;92.70
14079;DHT22;7115;50.150;8.568;2023-05-13T12:48:54;23.40;92.40
14079;DHT22;7115;50.150;8.568;2023-05-13T12:51:22;23.10;92.20
14079;DHT22;7115;50.150;8.568;2023-05-13T12:53:49;22.80;92.40
14079;DHT22;7115;50.150;8.568;2023-05-13T12:56:16;22.50;92.70
14079;DHT22;7115;50.150;8.568;2023-05-13T12:58:43;22.20;93.00
14079;DHT22;7115;50.150;8.568;2023-05-13T13:01:09;21.90;93.20
14079;DHT22;7115;50.150;8.568;2023-05-13T13:03:36;21.70;93.30
14079;DHT22;7115;50.150;8.568;2023-05-13T13:06:05;21.50;93.40
14079;DHT22;7115;50.150;8.568;2023-05-13T13:08:32;21.50;93.40
14079;DHT22;7115;50.150;8.568;2023-05-13T13:10:59;21.50;93.40
14079;DHT22;7115;50.150;8.568;2023-05-13T13:13:26;21.60;93.40
14079;DHT22;7115;50.150;8.568;2023-05-13T13:15:53;21.60;93.20
14079;DHT22;7115;50.150;8.568;2023-05-13T13:18:20;21.70;92.90
14079;DHT22;7115;50.150;8.568;2023-05-13T13:20:49;21.70;92.30
14079;DHT22;7115;50.150;8.568;2023-05-13T13:23:18;21.70;92.00
14079;DHT22;7115;50.150;8.568;2023-05-13T13:25:45;21.70;91.70
14079;DHT22;7115;50.150;8.568;2023-05-13T13:28:12;21.60;91.40
14079;DHT22;7115;50.150;8.568;2023-05-13T13:30:39;21.60;91.00
14079;DHT22;7115;50.150;8.568;2023-05-13T13:33:15;21.70;90.90
14079;DHT22;7115;50.150;8.568;2023-05-13T13:35:43;21.70;90.90
14079;DHT22;7115;50.150;8.568;2023-05-13T13:38:10;21.90;90.80
14079;DHT22;7115;50.150;8.568;2023-05-13T13:40:38;22.00;90.70
14079;DHT22;7115;50.150;8.568;2023-05-13T13:43:06;22.10;90.70
14079;DHT22;7115;50.150;8.568;2023-05-13T13:45:33;22.00;90.30
14079;DHT22;7115;50.150;8.568;2023-05-13T13:48:00;21.80;90.20
14079;DHT22;7115;50.150;8.568;2023-05-13T13:50:27;21.70;90.20
14079;DHT22;7115;50.150;8.568;2023-05-13T13:52:54;21.60;90.30
14079;DHT22;7115;50.150;8.568;2023-05-13T13:55:22;21.60;90.50
14079;DHT22;7115;50.150;8.568;2023-05-13T13:57:50;21.70;90.40
14079;DHT22;7115;50.150;8.568;2023-05-13T14:00:18;21.60;90.40
14079;DHT22;7115;50.150;8.568;2023-05-13T14:02:45;21.60;90.40
14079;DHT22;7115;50.150;8.568;2023-05-13T14:05:12;21.70;90.50
14079;DHT22;7115;50.150;8.568;2023-05-13T14:07:39;21.70;90.40
14079;DHT22;7115;50.150;8.568;2023-05-13T14:10:07;21.60;90.30
14079;DHT22;7115;50.150;8.568;2023-05-13T14:12:35;21.50;90.30
14079;DHT22;7115;50.150;8.568;2023-05-13T14:15:04;21.40;90.20
14079;DHT22;7115;50.150;8.568;2023-05-13T14:17:32;21.30;90.20
14079;DHT22;7115;50.150;8.568;2023-05-13T14:19:59;21.20;90.40
14079;DHT22;7115;50.150;8.568;2023-05-13T14:22:26;21.20;90.50
14079;DHT22;7115;50.150;8.568;2023-05-13T14:24:53;21.10;90.50
14079;DHT22;7115;50.150;8.568;2023-05-13T14:27:20;21.10;90.50
14079;DHT22;7115;50.150;8.568;2023-05-13T14:29:50;21.20;90.70
14079;DHT22;7115;50.150;8.568;2023-05-13T14:32:18;21.40;90.80
14079;DHT22;7115;50.150;8.568;2023-05-13T14:34:45;21.50;90.50
14079;DHT22;7115;50.150;8.568;2023-05-13T14:37:12;21.60;90.30
14079;DHT22;7115;50.150;8.568;2023-05-13T14:39:39;21.60;90.20
14079;DHT22;7115;50.150;8.568;2023-05-13T14:42:06;21.60;90.20
14079;DHT22;7115;50.150;8.568;2023-05-13T14:44:33;21.60;90.10
14079;DHT22;7115;50.150;8.568;2023-05-13T14:47:00;21.50;90.00
14079;DHT22;7115;50.150;8.568;2023-05-13T14:49:28;21.50;89.90
14079;DHT22;7115;50.150;8.568;2023-05-13T14:51:55;21.40;89.80
14079;DHT22;7115;50.150;8.568;2023-05-13T14:54:22;21.40;90.00
14079;DHT22;7115;50.150;8.568;2023-05-13T14:56:50;21.50;90.10
14079;DHT22;7115;50.150;8.568;2023-05-13T14:59:17;21.60;89.60
14079;DHT22;7115;50.150;8.568;2023-05-13T15:01:44;21.60;88.80
14079;DHT22;7115;50.150;8.568;2023-05-13T15:04:11;21.70;88.50
14079;DHT22;7115;50.150;8.568;2023-05-13T15:06:40;21.70;88.30
14079;DHT22;7115;50.150;8.568;2023-05-13T15:09:07;21.80;87.90
14079;DHT22;7115;50.150;8.568;2023-05-13T15:11:34;21.80;87.30
14079;DHT22;7115;50.150;8.568;2023-05-13T15:14:00;21.80;86.60
14079;DHT22;7115;50.150;8.568;2023-05-13T15:16:28;21.80;86.30
14079;DHT22;7115;50.150;8.568;2023-05-13T15:18:55;21.80;86.00
14079;DHT22;7115;50.150;8.568;2023-05-13T15:21:21;21.80;85.90
14079;DHT22;7115;50.150;8.568;2023-05-13T15:23:50;21.80;85.70
14079;DHT22;7115;50.150;8.568;2023-05-13T15:26:17;21.80;85.30
14079;DHT22;7115;50.150;8.568;2023-05-13T15:28:43;21.80;85.20
14079;DHT22;7115;50.150;8.568;2023-05-13T15:31:10;21.90;84.90
14079;DHT22;7115;50.150;8.568;2023-05-13T15:33:37;22.00;84.80
14079;DHT22;7115;50.150;8.568;2023-05-13T15:36:06;22.10;84.70
14079;DHT22;7115;50.150;8.568;2023-05-13T15:38:35;21.90;84.10
14079;DHT22;7115;50.150;8.568;2023-05-13T15:41:04;21.90;84.00
14079;DHT22;7115;50.150;8.568;2023-05-13T15:43:31;21.90;83.80
14079;DHT22;7115;50.150;8.568;2023-05-13T15:45:58;21.90;83.70
14079;DHT22;7115;50.150;8.568;2023-05-13T15:48:25;21.90;83.70
14079;DHT22;7115;50.150;8.568;2023-05-13T15:50:52;22.00;84.00